Time;durP1;ratioP1;P1;durP2;ratioP2;P2;SDS_P1;SDS_P2;PMS_P1;PMS_P2;Temp;Humidity;BMP_temperature;BMP_pressure;BME280_temperature;BME280_humidity;BME280_pressure;Samples;Min_cycle;Max_cycle;Signal;HPM_P1;HPM_P2
2021/11/25 00:00:37;;;;;;;18.55;10.35;;;;;;;1.35;75.68;100310.41;2038479;85;21348;-72
2021/11/25 00:03:38;;;;;;;24.23;14.03;;;;;;;1.26;75.91;100300.09;2015051;86;22953;-73
2021/11/25 00:06:40;;;;;;;21.75;13.25;;;;;;;1.18;75.97;100289.31;2021032;86;21730;-73
2021/11/25 00:09:41;;;;;;;24.92;13.25;;;;;;;1.11;76.08;100294.60;2018626;86;21096;-73
2021/11/25 00:12:44;;;;;;;23.60;13.98;;;;;;;1.03;76.21;100287.73;2016195;86;21071;-72
2021/11/25 00:15:45;;;;;;;22.05;12.80;;;;;;;0.99;76.44;100283.19;2012385;86;21201;-73
2021/11/25 00:18:47;;;;;;;22.20;13.72;;;;;;;0.93;76.48;100276.20;1969335;88;21016;-72
2021/11/25 00:21:49;;;;;;;27.22;15.03;;;;;;;0.86;76.54;100281.84;1971982;88;21060;-72
2021/11/25 00:24:50;;;;;;;29.40;15.32;;;;;;;0.80;76.86;100277.50;1968653;88;21007;-72
2021/11/25 00:27:52;;;;;;;30.82;17.62;;;;;;;0.72;76.87;100281.91;1978966;88;21600;-72
2021/11/25 00:30:54;;;;;;;30.35;17.15;;;;;;;0.59;77.24;100274.05;1967737;88;21019;-72
2021/11/25 00:33:55;;;;;;;37.35;19.15;;;;;;;0.50;77.41;100277.22;1973729;88;21122;-72
2021/11/25 00:36:57;;;;;;;33.65;16.87;;;;;;;0.41;77.81;100261.69;1969997;88;20989;-72
2021/11/25 00:39:59;;;;;;;35.15;18.32;;;;;;;0.39;77.84;100265.33;1969407;88;21611;-72
2021/11/25 00:43:00;;;;;;;35.60;19.95;;;;;;;0.36;77.92;100267.66;1974282;88;20998;-72
2021/11/25 00:46:03;;;;;;;37.42;21.60;;;;;;;0.36;78.19;100259.00;1975288;88;21061;-72
2021/11/25 00:49:06;;;;;;;40.23;22.62;;;;;;;0.35;78.21;100252.95;1974188;88;21115;-72
2021/11/25 00:52:07;;;;;;;43.02;22.58;;;;;;;0.34;78.31;100249.98;1967786;88;21615;-72
2021/11/25 00:55:09;;;;;;;40.50;21.75;;;;;;;0.32;78.37;100230.95;1977062;88;21025;-72
2021/11/25 00:58:12;;;;;;;39.70;22.37;;;;;;;0.30;78.40;100240.65;1967680;88;21047;-72
2021/11/25 01:01:14;;;;;;;39.75;21.17;;;;;;;0.26;78.44;100236.58;1977047;88;21515;-72
2021/11/25 01:04:15;;;;;;;43.40;23.05;;;;;;;0.25;78.55;100228.36;1970621;88;21033;-72
2021/11/25 01:07:17;;;;;;;40.50;23.00;;;;;;;0.22;78.54;100234.61;1975016;88;21095;-72
2021/11/25 01:10:23;;;;;;;46.05;25.52;;;;;;;0.20;78.55;100222.62;1971981;88;21004;-72
2021/11/25 01:13:24;;;;;;;40.12;22.13;;;;;;;0.16;78.55;100223.73;1976888;88;21115;-72
2021/11/25 01:16:26;;;;;;;40.55;22.30;;;;;;;0.08;78.37;100212.47;1982875;87;21096;-72
2021/11/25 01:19:28;;;;;;;42.93;22.30;;;;;;;0.05;78.63;100217.05;2009490;87;21014;-72
2021/11/25 01:22:29;;;;;;;42.38;23.65;;;;;;;0.02;78.66;100212.03;2009480;87;21085;-71
2021/11/25 01:25:31;;;;;;;45.88;25.37;;;;;;;0.06;78.84;100205.67;2013986;87;21010;-71
2021/11/25 01:28:33;;;;;;;48.68;26.90;;;;;;;0.09;78.79;100202.42;2007021;87;21035;-72
2021/11/25 01:31:35;;;;;;;46.15;25.68;;;;;;;0.09;78.78;100196.37;2014788;87;21521;-72
2021/11/25 01:34:37;;;;;;;48.50;25.95;;;;;;;0.04;78.71;100189.30;2004809;87;21102;-72
2021/11/25 01:37:40;;;;;;;40.83;24.55;;;;;;;-0.02;78.83;100182.70;2014040;86;21023;-71
2021/11/25 01:40:44;;;;;;;44.73;23.73;;;;;;;-0.07;78.89;100176.46;1971818;88;21614;-72
2021/11/25 01:43:46;;;;;;;44.60;25.15;;;;;;;-0.10;78.81;100174.05;1975557;88;21032;-71
2021/11/25 01:46:47;;;;;;;46.28;26.00;;;;;;;-0.15;79.03;100169.58;1985646;88;21064;-72
2021/11/25 01:49:49;;;;;;;43.15;24.92;;;;;;;-0.18;79.13;100158.05;2011486;87;21021;-71
2021/11/25 01:52:51;;;;;;;44.98;24.87;;;;;;;-0.20;79.06;100155.16;1975306;88;21485;-71
2021/11/25 01:55:53;;;;;;;46.88;24.47;;;;;;;-0.26;79.01;100155.91;1971844;88;21107;-72
2021/11/25 01:58:55;;;;;;;40.80;24.10;;;;;;;-0.27;79.17;100156.86;2016203;86;21013;-72
2021/11/25 02:01:57;;;;;;;46.68;25.95;;;;;;;-0.25;79.18;100155.47;2008550;87;21587;-72
2021/11/25 02:04:58;;;;;;;44.53;25.15;;;;;;;-0.25;79.22;100151.56;2006292;87;21559;-72
2021/11/25 02:08:01;;;;;;;48.52;24.95;;;;;;;-0.27;79.13;100149.50;2010483;87;21103;-71
2021/11/25 02:11:03;;;;;;;43.33;23.25;;;;;;;-0.33;79.12;100145.52;2013207;87;21555;-71
2021/11/25 02:14:05;;;;;;;39.23;22.52;;;;;;;-0.40;79.09;100136.39;2011155;87;21481;-71
2021/11/25 02:17:07;;;;;;;42.95;24.72;;;;;;;-0.43;79.20;100133.98;2013320;87;22206;-72
2021/11/25 02:20:11;;;;;;;43.75;25.27;;;;;;;-0.44;79.34;100123.66;1983410;88;21514;-72
2021/11/25 02:23:16;;;;;;;50.30;25.95;;;;;;;-0.47;79.29;100128.13;1990635;87;21116;-72
2021/11/25 02:26:18;;;;;;;42.30;25.08;;;;;;;-0.52;79.34;100115.84;1979428;88;21004;-72
2021/11/25 02:29:19;;;;;;;46.28;24.85;;;;;;;-0.54;79.31;100115.56;2011637;87;21113;-71
2021/11/25 02:32:30;;;;;;;43.95;24.63;;;;;;;-0.56;79.45;100109.16;1984976;88;21101;-71
2021/11/25 02:35:38;;;;;;;48.33;25.75;;;;;;;-0.57;79.46;100104.86;1981826;88;21112;-73
2021/11/25 02:38:40;;;;;;;48.42;25.10;;;;;;;-0.61;79.36;100098.66;1989052;88;21755;-73
2021/11/25 02:41:42;;;;;;;50.85;24.95;;;;;;;-0.64;79.54;100090.55;1987892;88;21056;-73
2021/11/25 02:44:43;;;;;;;45.67;25.08;;;;;;;-0.68;79.46;100092.97;1988983;87;21335;-73
2021/11/25 02:47:45;;;;;;;48.38;25.85;;;;;;;-0.75;79.59;100091.69;2007510;87;21081;-73
2021/11/25 02:50:49;;;;;;;48.92;26.05;;;;;;;-0.78;79.63;100085.38;2013918;86;21061;-73
2021/11/25 02:53:53;;;;;;;46.95;27.65;;;;;;;-0.81;79.63;100074.67;2012881;87;21090;-73
2021/11/25 02:56:56;;;;;;;41.35;23.40;;;;;;;-0.85;79.66;100074.47;2050526;85;21055;-73
2021/11/25 02:59:57;;;;;;;42.98;23.83;;;;;;;-0.89;79.68;100064.36;2047656;85;21568;-73
2021/11/25 03:03:04;;;;;;;49.60;27.20;;;;;;;-0.93;79.76;100051.97;2051117;85;21049;-73
2021/11/25 03:06:06;;;;;;;52.10;26.00;;;;;;;-0.96;79.82;100045.20;2044240;85;20994;-73
2021/11/25 03:09:09;;;;;;;47.08;24.45;;;;;;;-0.98;79.94;100048.36;2050045;84;21010;-73
2021/11/25 03:12:11;;;;;;;46.60;25.43;;;;;;;-0.98;79.94;100052.73;2047645;85;21109;-73
2021/11/25 03:15:13;;;;;;;47.90;26.68;;;;;;;-1.01;79.92;100045.95;2048696;84;21048;-73
2021/11/25 03:18:15;;;;;;;48.60;24.65;;;;;;;-1.03;79.92;100032.17;2041734;85;21491;-73
2021/11/25 03:21:20;;;;;;;44.00;24.27;;;;;;;-1.05;80.01;100034.50;2038480;85;21038;-72
2021/11/25 03:24:22;;;;;;;41.63;24.47;;;;;;;-1.08;80.02;100026.88;2038192;85;21030;-73
2021/11/25 03:27:23;;;;;;;47.23;27.22;;;;;;;-1.12;80.06;100020.20;2039320;84;21549;-73
2021/11/25 03:30:25;;;;;;;49.27;27.60;;;;;;;-1.14;80.09;100015.91;2045947;85;21553;-73
2021/11/25 03:33:31;;;;;;;51.90;27.95;;;;;;;-1.12;80.20;100004.58;2039330;84;21084;-73
2021/11/25 03:36:32;;;;;;;46.23;25.10;;;;;;;-1.16;80.18;100006.05;2042448;85;21080;-72
2021/11/25 03:39:34;;;;;;;49.10;27.05;;;;;;;-1.15;80.13;100006.91;2040649;85;21449;-72
2021/11/25 03:42:36;;;;;;;48.20;28.73;;;;;;;-1.15;80.14;99995.19;2046128;85;21023;-72
2021/11/25 03:45:38;;;;;;;48.95;26.85;;;;;;;-1.20;80.17;99995.46;2043708;85;21056;-72
2021/11/25 03:48:40;;;;;;;50.33;27.50;;;;;;;-1.25;80.24;99987.09;2040716;85;21010;-72
2021/11/25 03:51:42;;;;;;;47.53;27.93;;;;;;;-1.29;80.18;99976.52;2037440;85;21067;-72
2021/11/25 03:54:43;;;;;;;50.40;27.67;;;;;;;-1.33;80.28;99968.97;2044129;85;21482;-72
2021/11/25 03:57:47;;;;;;;54.42;29.82;;;;;;;-1.41;80.26;99957.28;2040421;85;21846;-72
2021/11/25 04:00:52;;;;;;;53.50;28.65;;;;;;;-1.41;80.44;99958.58;2040325;85;21005;-72
2021/11/25 04:03:53;;;;;;;54.42;30.65;;;;;;;-1.43;80.26;99953.10;2045901;85;20967;-71
2021/11/25 04:06:55;;;;;;;51.45;28.27;;;;;;;-1.47;80.32;99953.73;2037741;85;21079;-72
2021/11/25 04:09:57;;;;;;;54.03;29.82;;;;;;;-1.52;80.31;99945.39;2042638;85;20974;-71
2021/11/25 04:12:58;;;;;;;51.13;27.50;;;;;;;-1.56;80.37;99939.16;2041544;85;21465;-72
2021/11/25 04:16:00;;;;;;;52.08;28.90;;;;;;;-1.67;80.32;99926.80;2045589;84;20974;-72
2021/11/25 04:19:02;;;;;;;58.90;30.08;;;;;;;-1.74;80.41;99925.52;2039553;85;21583;-72
2021/11/25 04:22:04;;;;;;;57.60;30.15;;;;;;;-1.81;80.48;99915.45;2043478;85;21037;-71
2021/11/25 04:25:08;;;;;;;53.63;29.80;;;;;;;-1.82;80.56;99925.50;2038654;85;21066;-72
2021/11/25 04:28:10;;;;;;;65.03;31.42;;;;;;;-1.81;80.65;99918.06;2046172;85;21048;-72
2021/11/25 04:37:52;;;;;;;130.55;51.20;;;;;;;-1.85;80.56;99900.98;2041994;85;21078;-72
2021/11/25 04:40:58;;;;;;;143.55;51.98;;;;;;;-1.87;80.62;99901.53;2039349;85;21587;-72
2021/11/25 04:44:00;;;;;;;120.42;47.10;;;;;;;-1.90;80.49;99891.78;2042137;85;21041;-73
2021/11/25 04:47:02;;;;;;;56.30;29.40;;;;;;;-1.97;80.55;99887.43;2043181;85;21110;-73
2021/11/25 04:50:06;;;;;;;99.13;40.05;;;;;;;-1.94;80.61;99886.37;2040042;85;21057;-73
2021/11/25 04:53:13;;;;;;;164.90;56.73;;;;;;;-1.95;80.54;99882.95;2045581;85;21045;-73
2021/11/25 04:56:14;;;;;;;141.55;50.05;;;;;;;-1.98;80.45;99874.04;2042062;84;21105;-73
2021/11/25 04:59:16;;;;;;;69.72;31.55;;;;;;;-1.98;80.46;99874.04;2041371;85;21482;-73
2021/11/25 05:02:18;;;;;;;57.60;30.45;;;;;;;-2.00;80.29;99865.95;2041073;85;21576;-73
2021/11/25 05:05:19;;;;;;;62.05;32.17;;;;;;;-2.01;80.15;99859.92;2039993;85;21061;-72
2021/11/25 05:08:22;;;;;;;60.10;31.00;;;;;;;-2.11;79.80;99858.36;2040745;85;21042;-74
2021/11/25 05:11:24;;;;;;;54.13;29.72;;;;;;;-2.13;79.96;99843.31;2041338;85;21128;-73
2021/11/25 05:14:25;;;;;;;54.95;29.50;;;;;;;-2.17;80.19;99843.10;2044211;85;21028;-73
2021/11/25 05:17:27;;;;;;;57.03;31.30;;;;;;;-2.19;80.40;99836.36;2039495;85;21010;-72
2021/11/25 05:20:29;;;;;;;56.33;28.52;;;;;;;-2.20;80.53;99837.27;2042022;85;21073;-71
2021/11/25 05:23:31;;;;;;;73.28;34.80;;;;;;;-2.22;80.27;99843.01;2039312;85;22485;-72
2021/11/25 05:26:33;;;;;;;63.52;32.48;;;;;;;-2.20;80.18;99845.06;2043906;85;21027;-73
2021/11/25 05:29:34;;;;;;;59.77;32.83;;;;;;;-2.20;80.12;99833.36;2043132;85;20998;-73
2021/11/25 05:32:37;;;;;;;55.20;32.05;;;;;;;-2.19;80.12;99824.19;2039436;85;21101;-72
2021/11/25 05:35:39;;;;;;;59.58;33.33;;;;;;;-2.20;80.15;99825.56;2041193;85;21059;-73
2021/11/25 05:38:41;;;;;;;59.98;33.20;;;;;;;-2.28;80.33;99820.82;2037588;85;21544;-72
2021/11/25 05:41:43;;;;;;;59.25;31.77;;;;;;;-2.34;80.54;99816.83;2040578;85;21042;-73
2021/11/25 05:44:46;;;;;;;55.70;32.20;;;;;;;-2.35;80.71;99811.27;2037981;84;20966;-74
2021/11/25 05:47:49;;;;;;;63.80;34.55;;;;;;;-2.37;80.90;99811.81;2032691;85;21405;-73
2021/11/25 05:50:51;;;;;;;55.25;30.12;;;;;;;-2.35;80.85;99813.87;2037046;85;21449;-73
2021/11/25 05:53:53;;;;;;;49.65;28.57;;;;;;;-2.32;80.98;99809.78;2038940;85;21044;-72
2021/11/25 05:56:54;;;;;;;50.08;29.10;;;;;;;-2.28;80.50;99813.89;2041454;85;21599;-72
2021/11/25 05:59:56;;;;;;;52.85;28.95;;;;;;;-2.23;80.54;99803.66;2037461;85;21643;-73
2021/11/25 06:02:58;;;;;;;58.45;30.68;;;;;;;-2.13;80.40;99809.52;2038320;85;21125;-71
2021/11/25 06:06:00;;;;;;;50.90;29.85;;;;;;;-2.11;80.25;99805.50;2037040;84;21081;-72
2021/11/25 06:09:03;;;;;;;53.80;29.18;;;;;;;-2.13;80.29;99804.78;2039590;85;21077;-71
2021/11/25 06:12:07;;;;;;;54.80;29.85;;;;;;;-2.14;80.30;99807.85;2037225;85;21052;-73
2021/11/25 06:15:09;;;;;;;54.55;30.90;;;;;;;-2.13;80.28;99799.58;2042733;84;21454;-72
2021/11/25 06:18:11;;;;;;;49.60;28.38;;;;;;;-2.17;80.19;99805.41;2043123;84;21044;-71
2021/11/25 06:21:13;;;;;;;52.93;27.62;;;;;;;-2.17;80.05;99798.08;2050296;85;22753;-72
2021/11/25 06:24:15;;;;;;;55.15;30.27;;;;;;;-2.19;80.23;99790.39;2052305;85;20995;-72
2021/11/25 06:27:16;;;;;;;50.80;28.25;;;;;;;-2.18;80.17;99795.95;2048216;85;21015;-72
2021/11/25 06:30:18;;;;;;;49.30;27.75;;;;;;;-2.21;79.94;99794.02;2050270;86;21042;-72
2021/11/25 06:33:20;;;;;;;55.25;30.27;;;;;;;-2.23;80.07;99799.77;2050230;85;21051;-72
2021/11/25 06:36:22;;;;;;;53.08;30.43;;;;;;;-2.21;79.97;99801.81;2049137;86;20997;-72
2021/11/25 06:39:23;;;;;;;53.78;30.35;;;;;;;-2.24;79.89;99800.23;2051157;85;21087;-72
2021/11/25 06:42:25;;;;;;;73.80;37.40;;;;;;;-2.31;79.96;99804.98;2053697;85;20996;-72
2021/11/25 06:45:27;;;;;;;65.17;34.80;;;;;;;-2.27;80.15;99809.05;2050473;85;21903;-72
2021/11/25 06:48:29;;;;;;;60.03;31.70;;;;;;;-2.24;80.17;99805.43;2050041;85;21104;-72
2021/11/25 06:51:31;;;;;;;67.75;35.48;;;;;;;-2.18;80.20;99815.45;2051282;85;21087;-72
2021/11/25 06:54:33;;;;;;;71.72;35.33;;;;;;;-2.14;80.18;99812.19;2027752;85;21129;-72
2021/11/25 06:57:36;;;;;;;63.65;33.45;;;;;;;-2.13;80.05;99805.61;2051045;86;21046;-72
2021/11/25 07:00:38;;;;;;;61.88;31.05;;;;;;;-2.03;80.18;99803.27;2048129;86;21063;-72
2021/11/25 07:03:39;;;;;;;64.95;33.92;;;;;;;-1.90;80.28;99797.69;2052652;86;21471;-72
2021/11/25 07:06:41;;;;;;;84.28;34.73;;;;;;;-1.75;80.39;99792.45;2053254;85;21066;-72
2021/11/25 07:09:43;;;;;;;59.73;29.75;;;;;;;-1.59;80.57;99793.17;2047083;85;22037;-72
2021/11/25 07:12:46;;;;;;;54.30;30.02;;;;;;;-1.53;80.46;99790.17;2049485;85;21860;-72
2021/11/25 07:15:48;;;;;;;50.05;28.10;;;;;;;-1.48;80.24;99789.41;2052215;85;21623;-72
2021/11/25 07:18:50;;;;;;;50.60;28.83;;;;;;;-1.36;80.31;99791.69;2046611;85;21064;-72
2021/11/25 07:21:51;;;;;;;52.13;29.40;;;;;;;-1.22;80.41;99793.41;2040084;85;21104;-72
2021/11/25 07:24:53;;;;;;;56.48;30.12;;;;;;;-1.07;80.32;99794.17;2042868;85;21005;-72
2021/11/25 07:27:55;;;;;;;52.17;28.17;;;;;;;-0.99;80.15;99801.02;2042783;84;21027;-72
2021/11/25 07:30:57;;;;;;;55.03;29.10;;;;;;;-0.89;80.30;99803.39;2045310;85;21713;-72
2021/11/25 07:33:59;;;;;;;54.00;30.02;;;;;;;-0.81;80.33;99786.78;2038556;85;21093;-72
2021/11/25 07:37:00;;;;;;;56.48;29.72;;;;;;;-0.77;80.23;99790.84;2045919;85;21017;-72
2021/11/25 07:40:04;;;;;;;53.08;28.27;;;;;;;-0.72;80.25;99789.24;2041989;85;21026;-72
2021/11/25 07:43:06;;;;;;;56.23;28.83;;;;;;;-0.67;80.34;99784.56;2044016;85;21542;-72
2021/11/25 07:46:08;;;;;;;52.83;28.45;;;;;;;-0.54;80.41;99784.55;2045658;85;21556;-71
2021/11/25 07:49:10;;;;;;;58.55;30.37;;;;;;;-0.35;80.48;99784.14;2044463;85;21049;-72
2021/11/25 07:52:12;;;;;;;53.52;28.80;;;;;;;-0.16;80.52;99788.45;2043706;85;21045;-72
2021/11/25 07:55:17;;;;;;;54.18;29.10;;;;;;;0.10;80.56;99789.70;2042583;85;20986;-72
2021/11/25 07:58:18;;;;;;;53.02;31.33;;;;;;;0.41;80.44;99794.41;2047553;85;21089;-72
2021/11/25 08:01:20;;;;;;;54.05;32.42;;;;;;;0.78;80.45;99786.52;2041544;85;21088;-73
2021/11/25 08:04:21;;;;;;;52.17;30.15;;;;;;;1.23;80.39;99785.84;2042961;85;21001;-71
2021/11/25 08:07:23;;;;;;;49.18;29.55;;;;;;;1.65;79.82;99787.46;2044084;85;21020;-71
2021/11/25 08:10:27;;;;;;;53.65;30.23;;;;;;;1.82;78.66;99776.52;2043802;85;21115;-72
2021/11/25 08:13:31;;;;;;;55.75;30.23;;;;;;;1.91;77.83;99777.59;2042331;85;21579;-72
2021/11/25 08:16:32;;;;;;;51.42;30.15;;;;;;;2.01;77.50;99766.28;2044691;85;21096;-72
2021/11/25 08:19:34;;;;;;;49.13;29.18;;;;;;;2.10;77.12;99758.19;2041935;85;21028;-74
2021/11/25 08:22:36;;;;;;;50.35;29.18;;;;;;;2.13;76.63;99750.09;2038913;85;21053;-73
2021/11/25 08:25:38;;;;;;;48.65;27.87;;;;;;;2.20;76.10;99745.22;2034434;85;20994;-73
2021/11/25 08:28:41;;;;;;;45.67;27.60;;;;;;;2.30;76.34;99735.66;2039989;85;21044;-73
2021/11/25 08:31:42;;;;;;;53.33;29.75;;;;;;;2.42;76.01;99737.75;2037903;85;21096;-72
2021/11/25 08:34:44;;;;;;;48.28;28.25;;;;;;;2.51;75.78;99738.34;2036043;85;21037;-73
2021/11/25 08:37:46;;;;;;;55.28;31.60;;;;;;;2.75;76.03;99741.22;2042048;85;21523;-72
2021/11/25 08:40:48;;;;;;;54.05;31.70;;;;;;;2.95;75.48;99741.71;2036702;85;21088;-73
2021/11/25 08:43:50;;;;;;;51.55;30.57;;;;;;;3.14;75.58;99731.36;2036642;85;21615;-73
2021/11/25 08:46:51;;;;;;;51.42;30.25;;;;;;;3.24;74.59;99719.63;2041246;85;21546;-73
2021/11/25 08:49:53;;;;;;;46.13;28.17;;;;;;;3.31;73.52;99715.52;2039554;85;21042;-73
2021/11/25 08:52:56;;;;;;;44.98;27.20;;;;;;;3.46;74.61;99713.38;2043940;85;21306;-73
2021/11/25 08:55:59;;;;;;;45.40;27.50;;;;;;;3.60;73.19;99708.25;2039587;85;21058;-73
2021/11/25 08:59:00;;;;;;;47.38;28.73;;;;;;;3.52;72.90;99712.88;2035508;85;21253;-74
2021/11/25 09:02:02;;;;;;;50.45;28.17;;;;;;;3.69;74.15;99708.80;2035825;85;21017;-72
2021/11/25 09:05:07;;;;;;;44.93;28.50;;;;;;;4.08;74.35;99708.06;2041826;84;21045;-74
2021/11/25 09:08:09;;;;;;;42.93;27.50;;;;;;;4.42;73.98;99709.38;2035330;85;21062;-73
2021/11/25 09:11:10;;;;;;;43.95;27.77;;;;;;;4.78;73.79;99700.43;2043179;85;21006;-73
2021/11/25 09:14:12;;;;;;;48.50;28.40;;;;;;;5.06;73.32;99692.65;2039255;84;21659;-74
2021/11/25 09:17:14;;;;;;;44.40;28.73;;;;;;;5.25;72.61;99692.61;2015581;85;21062;-73
2021/11/25 09:20:15;;;;;;;47.83;27.77;;;;;;;5.42;72.32;99682.31;2022480;84;21062;-74
2021/11/25 09:23:20;;;;;;;43.73;28.50;;;;;;;5.55;71.82;99688.09;2013290;87;21554;-73
2021/11/25 09:26:22;;;;;;;48.13;30.37;;;;;;;5.51;69.60;99690.16;2014923;87;21021;-72
2021/11/25 09:29:24;;;;;;;54.03;33.25;;;;;;;5.13;68.63;99685.38;2012489;87;21047;-73
2021/11/25 09:32:27;;;;;;;51.40;30.90;;;;;;;4.87;68.32;99679.05;2015171;87;21068;-73
2021/11/25 09:35:29;;;;;;;47.10;29.30;;;;;;;4.69;69.53;99675.81;2014374;87;21120;-73
2021/11/25 09:38:30;;;;;;;49.67;28.00;;;;;;;4.60;68.84;99669.27;2012652;87;21077;-73
2021/11/25 09:41:32;;;;;;;46.55;28.77;;;;;;;4.44;69.79;99656.19;2009643;87;21731;-72
2021/11/25 09:44:34;;;;;;;48.70;28.32;;;;;;;4.57;69.55;99659.04;2013487;87;21148;-73
2021/11/25 09:47:37;;;;;;;43.20;26.95;;;;;;;4.56;69.52;99648.16;2013553;87;20986;-73
2021/11/25 09:50:46;;;;;;;51.73;29.40;;;;;;;4.67;69.48;99640.13;2015266;87;21536;-73
2021/11/25 09:53:48;;;;;;;43.02;28.07;;;;;;;4.96;69.79;99653.24;2006219;87;21524;-73
2021/11/25 09:56:51;;;;;;;48.23;29.37;;;;;;;5.00;68.28;99638.00;2013979;87;20970;-72
2021/11/25 09:59:52;;;;;;;45.35;29.25;;;;;;;4.97;68.92;99626.45;2013185;87;21525;-72
2021/11/25 10:02:55;;;;;;;45.38;28.90;;;;;;;5.12;69.46;99623.70;2010879;87;21080;-72
2021/11/25 10:05:58;;;;;;;47.30;29.40;;;;;;;5.35;69.06;99613.63;2010007;87;21054;-73
2021/11/25 10:09:02;;;;;;;48.60;28.32;;;;;;;5.50;69.10;99606.11;2011650;87;21069;-73
2021/11/25 10:12:36;;;;;;;49.50;29.35;;;;;;;5.67;68.70;99597.41;2011742;87;21104;-72
2021/11/25 10:15:40;;;;;;;49.67;29.23;;;;;;;5.73;68.28;99604.72;2009685;87;21498;-73
2021/11/25 10:18:43;;;;;;;48.10;29.35;;;;;;;5.85;68.57;99590.35;2018746;85;21029;-73
2021/11/25 10:21:56;;;;;;;47.40;28.85;;;;;;;5.94;66.40;99580.78;2044471;85;21039;-74
2021/11/25 10:25:01;;;;;;;46.40;29.42;;;;;;;6.00;68.38;99580.67;2040864;85;21120;-74
2021/11/25 10:28:02;;;;;;;49.67;29.55;;;;;;;6.13;68.25;99585.05;2009673;87;21016;-72
2021/11/25 10:31:23;;;;;;;43.15;26.68;;;;;;;6.15;67.87;99582.28;1978981;87;21053;-72
2021/11/25 10:34:37;;;;;;;53.63;30.08;;;;;;;6.13;67.54;99581.60;1979074;88;21697;-73
2021/11/25 10:37:39;;;;;;;45.15;26.80;;;;;;;6.06;67.43;99572.98;1977716;87;21086;-74
2021/11/25 10:40:40;;;;;;;37.73;23.85;;;;;;;6.10;67.23;99570.05;2035249;85;21018;-73
2021/11/25 10:43:42;;;;;;;37.65;23.15;;;;;;;6.00;67.40;99572.28;2040355;85;21108;-72
2021/11/25 10:46:51;;;;;;;41.77;27.48;;;;;;;6.04;66.67;99567.53;2032979;85;21074;-72
2021/11/25 10:49:59;;;;;;;46.75;26.48;;;;;;;5.93;66.85;99569.05;2039146;85;21099;-73
2021/11/25 10:53:06;;;;;;;42.73;27.25;;;;;;;5.70;66.49;99561.58;2038498;85;20981;-73
2021/11/25 10:56:08;;;;;;;50.63;29.02;;;;;;;5.53;66.92;99559.76;2037482;85;21037;-72
2021/11/25 10:59:13;;;;;;;41.37;26.02;;;;;;;5.39;67.09;99559.77;2043884;85;21507;-73
2021/11/25 11:02:28;;;;;;;44.05;27.90;;;;;;;5.29;67.01;99557.66;2039163;85;21299;-73
2021/11/25 11:05:30;;;;;;;39.83;25.57;;;;;;;5.18;67.38;99546.88;2039765;85;21068;-72
2021/11/25 11:08:45;;;;;;;46.25;28.52;;;;;;;5.12;67.37;99556.17;2034517;84;21079;-73
2021/11/25 11:11:47;;;;;;;47.80;28.47;;;;;;;5.18;68.01;99560.02;2030303;85;21032;-72
2021/11/25 11:14:54;;;;;;;41.23;25.62;;;;;;;5.44;68.09;99554.08;2035860;85;21115;-73
2021/11/25 11:21:40;;;;;;;42.03;25.57;;;;;;;5.69;67.41;99536.25;2035338;85;21113;-72
2021/11/25 11:24:42;;;;;;;44.48;27.32;;;;;;;5.72;67.47;99534.63;2035227;84;21092;-73
2021/11/25 11:27:44;;;;;;;43.68;26.10;;;;;;;5.74;67.54;99530.02;2031488;85;21049;-73
2021/11/25 11:30:46;;;;;;;40.15;25.68;;;;;;;5.72;67.20;99527.22;2037453;85;21037;-73
2021/11/25 11:33:49;;;;;;;43.30;26.60;;;;;;;5.75;67.26;99518.53;2034475;85;21622;-73
2021/11/25 11:36:54;;;;;;;43.08;26.73;;;;;;;5.77;67.04;99515.27;2039988;84;21047;-73
2021/11/25 11:39:57;;;;;;;39.25;25.70;;;;;;;5.87;67.26;99511.23;2036863;85;21041;-72
2021/11/25 11:43:01;;;;;;;43.65;27.13;;;;;;;5.91;67.19;99509.11;2032963;85;21065;-73
2021/11/25 11:46:04;;;;;;;42.65;25.92;;;;;;;5.88;66.64;99504.97;2044430;84;21045;-73
2021/11/25 11:49:07;;;;;;;46.68;28.55;;;;;;;5.80;66.98;99493.05;2031262;85;21140;-72
2021/11/25 11:52:23;;;;;;;44.20;26.80;;;;;;;5.77;66.60;99475.77;2037758;85;21113;-73
2021/11/25 11:55:41;;;;;;;41.53;27.15;;;;;;;5.71;66.50;99463.19;2044361;85;21469;-72
2021/11/25 11:58:55;;;;;;;40.73;25.92;;;;;;;5.62;66.20;99454.89;2039137;85;21112;-73
2021/11/25 12:01:56;;;;;;;49.08;30.02;;;;;;;5.53;66.62;99461.07;2036606;85;21054;-72
2021/11/25 12:04:58;;;;;;;43.58;26.75;;;;;;;5.41;66.49;99444.69;2042118;85;21018;-73
2021/11/25 12:08:33;;;;;;;41.50;27.58;;;;;;;5.33;66.65;99449.38;2038724;85;21042;-73
2021/11/25 12:11:43;;;;;;;42.65;27.60;;;;;;;5.27;66.77;99446.03;1984184;86;21124;-76
2021/11/25 12:14:55;;;;;;;41.23;27.30;;;;;;;5.24;66.89;99443.70;2010291;86;21012;-77
2021/11/25 12:18:00;;;;;;;48.48;29.00;;;;;;;5.21;67.08;99436.11;2018637;86;21574;-76
2021/11/25 12:21:04;;;;;;;43.20;25.27;;;;;;;5.13;67.19;99435.53;1989512;87;21014;-75
2021/11/25 12:24:28;;;;;;;45.50;25.68;;;;;;;5.12;67.29;99426.45;2013236;87;21073;-75
2021/11/25 12:27:38;;;;;;;44.88;26.23;;;;;;;5.13;67.32;99421.06;1974245;88;21088;-80
2021/11/25 12:30:41;;;;;;;45.60;28.57;;;;;;;5.17;67.35;99413.20;2004546;86;21074;-75
2021/11/25 12:33:47;;;;;;;44.23;27.37;;;;;;;5.20;67.76;99406.81;2000844;87;21135;-75
2021/11/25 12:36:49;;;;;;;43.25;26.60;;;;;;;5.27;67.59;99408.38;2003318;87;21114;-75
2021/11/25 12:39:51;;;;;;;44.30;27.17;;;;;;;5.32;67.17;99403.00;2008980;87;21085;-76
2021/11/25 12:43:13;;;;;;;43.23;27.93;;;;;;;5.37;67.39;99403.85;2009935;87;21533;-75
2021/11/25 12:46:18;;;;;;;43.17;27.17;;;;;;;5.32;66.53;99401.69;2001723;87;21077;-75
2021/11/25 12:49:19;;;;;;;40.75;26.65;;;;;;;5.25;67.01;99390.10;2010517;86;21016;-74
2021/11/25 12:52:30;;;;;;;42.80;27.82;;;;;;;5.16;67.16;99379.17;2002147;87;21059;-77
2021/11/25 12:55:32;;;;;;;40.52;24.65;;;;;;;5.05;67.12;99384.16;1964138;88;21038;-74
2021/11/25 12:58:50;;;;;;;45.45;25.55;;;;;;;4.96;66.79;99377.67;2004546;86;21010;-75
2021/11/25 13:01:52;;;;;;;38.02;23.77;;;;;;;4.90;66.98;99383.85;1993832;87;20989;-74
2021/11/25 13:04:54;;;;;;;42.17;25.52;;;;;;;4.86;66.85;99375.08;2011172;87;21589;-75
2021/11/25 13:07:57;;;;;;;49.95;26.97;;;;;;;4.82;66.83;99380.31;2011943;86;21056;-74
2021/11/25 13:11:02;;;;;;;41.02;26.90;;;;;;;4.79;67.23;99378.80;2008725;86;21066;-74
2021/11/25 13:14:15;;;;;;;43.30;26.77;;;;;;;4.79;67.70;99365.66;2002046;87;21105;-75
2021/11/25 13:17:15;;;;;;;45.08;27.67;;;;;;;4.81;67.33;99355.80;2000797;87;21011;-77
2021/11/25 13:20:17;;;;;;;46.05;27.80;;;;;;;4.84;67.67;99346.33;2001417;87;21496;-75
2021/11/25 13:23:24;;;;;;;49.65;28.27;;;;;;;4.89;67.46;99341.43;2003638;87;21038;-75
2021/11/25 13:26:41;;;;;;;49.65;28.70;;;;;;;4.90;67.26;99340.48;2007528;87;21121;-75
2021/11/25 13:29:57;;;;;;;48.28;28.62;;;;;;;4.84;67.37;99339.77;1999694;87;20998;-74
2021/11/25 13:32:58;;;;;;;47.40;28.10;;;;;;;4.78;67.49;99339.02;2007386;87;21835;-74
2021/11/25 13:36:04;;;;;;;48.45;28.83;;;;;;;4.69;67.63;99332.03;2001698;87;21055;-74
2021/11/25 13:39:11;;;;;;;44.42;26.85;;;;;;;4.64;67.68;99344.78;2013745;87;21121;-74
2021/11/25 13:42:17;;;;;;;45.38;28.30;;;;;;;4.63;67.94;99340.52;2009817;86;20991;-74
2021/11/25 13:45:22;;;;;;;50.12;30.05;;;;;;;4.63;67.91;99352.34;1984242;88;21077;-74
2021/11/25 13:48:24;;;;;;;53.75;31.85;;;;;;;4.62;68.07;99353.32;1985011;88;20998;-76
2021/11/25 13:51:26;;;;;;;48.20;30.37;;;;;;;4.61;68.38;99355.59;2002480;87;21067;-74
2021/11/25 13:54:28;;;;;;;55.83;30.72;;;;;;;4.58;68.26;99367.22;1999462;85;21552;-74
2021/11/25 13:57:30;;;;;;;49.80;29.55;;;;;;;4.56;68.47;99364.39;1997481;87;21561;-74
2021/11/25 14:00:38;;;;;;;50.98;29.55;;;;;;;4.55;68.37;99358.81;2002685;87;21046;-74
2021/11/25 14:03:46;;;;;;;49.35;29.45;;;;;;;4.54;68.48;99359.80;2008355;87;21131;-73
2021/11/25 14:06:48;;;;;;;47.65;29.12;;;;;;;4.52;68.52;99361.73;2008481;87;21110;-74
2021/11/25 14:10:04;;;;;;;48.65;29.02;;;;;;;4.44;68.52;99363.27;2002404;87;21054;-74
2021/11/25 14:13:07;;;;;;;48.17;29.20;;;;;;;4.37;68.56;99364.84;1997572;87;21067;-74
2021/11/25 14:16:24;;;;;;;49.10;28.67;;;;;;;4.36;68.73;99367.11;2001566;87;21094;-74